Time;durP1;ratioP1;P1;durP2;ratioP2;P2;SDS_P1;SDS_P2;PMS_P1;PMS_P2;Temp;Humidity;BMP_temperature;BMP_pressure;BME280_temperature;BME280_humidity;BME280_pressure;Samples;Min_cycle;Max_cycle;Signal;HPM_P1;HPM_P2
2021/12/09 00:01:01;;;;;;;15.40;6.10;;;4.30;91.50;;;;;;4959280;28;20447;-76
2021/12/09 00:03:29;;;;;;;7.30;3.70;;;4.30;91.40;;;;;;4976730;28;20411;-77
2021/12/09 00:05:59;;;;;;;13.33;4.20;;;4.30;91.40;;;;;;4976396;28;20420;-76
2021/12/09 00:08:27;;;;;;;12.20;5.13;;;4.40;91.40;;;;;;4959027;28;20511;-78
2021/12/09 00:10:55;;;;;;;9.50;4.67;;;4.30;91.30;;;;;;4975731;28;20467;-76
2021/12/09 00:13:22;;;;;;;7.03;4.03;;;4.40;91.40;;;;;;4976070;28;20416;-76
2021/12/09 00:15:48;;;;;;;15.67;6.43;;;4.40;91.30;;;;;;4975723;28;20466;-76
2021/12/09 00:18:14;;;;;;;10.57;4.43;;;4.40;91.30;;;;;;4976185;28;20631;-77
2021/12/09 00:20:40;;;;;;;10.27;4.50;;;4.50;91.30;;;;;;4976234;28;20436;-77
2021/12/09 00:23:07;;;;;;;9.23;4.30;;;4.50;91.60;;;;;;4975786;28;20416;-77
2021/12/09 00:25:33;;;;;;;5.70;4.20;;;4.50;91.20;;;;;;4976451;28;20662;-75
2021/12/09 00:27:59;;;;;;;10.07;3.67;;;4.50;91.10;;;;;;4958551;28;20438;-77
2021/12/09 00:30:25;;;;;;;10.33;3.90;;;4.60;91.20;;;;;;4958060;28;20554;-78
2021/12/09 00:32:51;;;;;;;12.27;4.23;;;4.60;91.10;;;;;;4975531;28;20751;-77
2021/12/09 00:35:19;;;;;;;11.37;4.77;;;4.60;91.10;;;;;;4976206;28;20423;-77
2021/12/09 00:37:56;;;;;;;6.83;4.43;;;4.60;91.10;;;;;;4958269;28;20894;-78
2021/12/09 00:40:22;;;;;;;12.17;3.60;;;4.60;91.10;;;;;;4975964;28;20859;-77
2021/12/09 00:42:48;;;;;;;15.40;3.67;;;4.60;91.20;;;;;;4975151;28;20431;-75
2021/12/09 00:45:14;;;;;;;8.33;3.47;;;4.60;91.20;;;;;;4958633;28;20778;-75
2021/12/09 00:47:39;;;;;;;7.30;2.80;;;4.60;91.20;;;;;;4975447;28;20172;-76
2021/12/09 00:50:06;;;;;;;7.77;2.97;;;4.60;90.90;;;;;;4958362;28;20506;-78
2021/12/09 00:52:32;;;;;;;8.63;3.00;;;4.60;90.70;;;;;;4975634;28;20165;-76
2021/12/09 00:54:59;;;;;;;5.97;2.33;;;4.60;90.60;;;;;;4959045;28;20945;-77
2021/12/09 00:57:25;;;;;;;4.60;2.80;;;4.60;90.60;;;;;;4974821;28;20172;-76
2021/12/09 00:59:51;;;;;;;13.40;3.90;;;4.60;90.60;;;;;;4974422;28;20424;-76
2021/12/09 01:02:17;;;;;;;9.73;3.00;;;4.50;90.50;;;;;;4975863;28;20419;-76
2021/12/09 01:04:44;;;;;;;5.30;2.50;;;4.40;90.40;;;;;;4975572;28;20211;-76
2021/12/09 01:07:10;;;;;;;13.10;4.47;;;4.40;90.40;;;;;;4975600;28;20261;-76
2021/12/09 01:09:36;;;;;;;7.90;2.63;;;4.30;90.40;;;;;;4957193;28;20514;-76
2021/12/09 01:12:05;;;;;;;8.43;2.67;;;4.30;90.40;;;;;;4974708;28;20464;-78
2021/12/09 01:14:31;;;;;;;6.27;3.40;;;4.30;90.40;;;;;;4975498;28;20419;-76
2021/12/09 01:16:56;;;;;;;16.60;3.27;;;4.30;90.40;;;;;;4975244;28;20410;-76
2021/12/09 01:19:22;;;;;;;8.90;3.87;;;4.40;90.40;;;;;;4958257;28;20647;-77
2021/12/09 01:21:48;;;;;;;9.83;2.47;;;4.40;90.60;;;;;;4957120;28;20188;-75
2021/12/09 01:24:14;;;;;;;9.13;3.20;;;4.50;90.20;;;;;;4975048;28;20408;-76
2021/12/09 01:26:41;;;;;;;4.77;3.23;;;4.50;90.10;;;;;;4975278;28;20447;-77
2021/12/09 01:29:16;;;;;;;8.77;3.27;;;4.60;90.00;;;;;;4975317;28;20412;-77
2021/12/09 01:31:51;;;;;;;4.60;2.80;;;4.60;89.70;;;;;;4974899;28;20984;-77
2021/12/09 01:34:19;;;;;;;9.23;3.27;;;4.60;89.70;;;;;;4957941;28;20809;-78
2021/12/09 01:36:47;;;;;;;9.50;3.00;;;4.60;89.80;;;;;;4974805;28;20435;-78
2021/12/09 01:39:13;;;;;;;9.10;2.83;;;4.70;89.80;;;;;;4959498;28;20424;-76
2021/12/09 01:41:39;;;;;;;4.93;2.67;;;4.70;89.50;;;;;;5029350;22;20492;-80
2021/12/09 01:44:05;;;;;;;9.50;3.77;;;4.70;89.10;;;;;;5037972;28;20405;-81
2021/12/09 01:46:31;;;;;;;5.33;2.37;;;4.60;89.00;;;;;;5023293;28;20181;-81
2021/12/09 01:48:56;;;;;;;8.13;2.70;;;4.60;89.20;;;;;;5022018;28;20401;-80
2021/12/09 01:51:22;;;;;;;12.00;3.60;;;4.50;89.30;;;;;;5013909;28;20215;-80
2021/12/09 01:53:51;;;;;;;7.83;2.50;;;4.40;89.50;;;;;;5014591;28;20222;-82
2021/12/09 01:56:23;;;;;;;7.33;2.30;;;4.40;89.80;;;;;;5015832;28;20478;-79
2021/12/09 01:58:55;;;;;;;4.97;2.00;;;4.40;89.80;;;;;;4985787;28;20438;-81
2021/12/09 02:01:22;;;;;;;5.43;2.30;;;4.50;89.90;;;;;;4999427;28;20442;-82
2021/12/09 02:03:48;;;;;;;7.27;2.73;;;4.50;90.00;;;;;;4977090;28;20777;-80
2021/12/09 02:06:14;;;;;;;4.50;2.80;;;4.50;90.00;;;;;;4996185;28;20920;-81
2021/12/09 02:08:40;;;;;;;8.33;2.83;;;4.50;90.00;;;;;;4998933;28;20505;-80
2021/12/09 02:11:06;;;;;;;6.90;3.07;;;4.50;90.10;;;;;;5003508;28;20541;-80
2021/12/09 02:13:31;;;;;;;5.80;2.47;;;4.40;90.10;;;;;;5003995;28;20197;-80
2021/12/09 02:15:57;;;;;;;5.63;2.93;;;4.40;90.20;;;;;;5005398;28;20175;-82
2021/12/09 02:18:24;;;;;;;7.00;3.03;;;4.40;90.30;;;;;;4983834;28;20614;-80
2021/12/09 02:21:12;;;;;;;9.00;2.50;;;4.30;90.40;;;;;;4965722;28;20246;-80
2021/12/09 02:23:41;;;;;;;6.63;2.70;;;4.30;90.50;;;;;;4998589;28;20451;-80
2021/12/09 02:26:07;;;;;;;6.13;3.30;;;4.20;90.50;;;;;;4998628;28;20901;-80
2021/12/09 02:28:33;;;;;;;11.00;4.47;;;4.20;90.70;;;;;;4982856;28;20411;-80
2021/12/09 02:30:59;;;;;;;3.83;2.77;;;4.10;90.80;;;;;;4983812;28;20529;-82
2021/12/09 02:33:25;;;;;;;4.50;2.47;;;4.10;91.00;;;;;;5001008;28;20182;-79
2021/12/09 02:35:50;;;;;;;8.00;3.10;;;4.10;91.10;;;;;;4999564;28;20535;-81
2021/12/09 02:38:16;;;;;;;3.80;2.47;;;4.00;91.20;;;;;;4981357;28;20260;-80
2021/12/09 02:40:42;;;;;;;13.40;2.97;;;4.00;91.30;;;;;;5000024;28;20307;-80
2021/12/09 02:43:08;;;;;;;5.47;2.77;;;4.00;91.40;;;;;;4981463;28;20170;-82
2021/12/09 02:45:35;;;;;;;11.60;3.17;;;3.90;91.50;;;;;;4998135;28;20168;-80
2021/12/09 02:48:01;;;;;;;6.60;2.60;;;3.80;91.60;;;;;;5000197;28;20414;-80
2021/12/09 02:50:27;;;;;;;6.57;4.63;;;3.80;91.80;;;;;;4982002;28;20820;-81
2021/12/09 02:52:52;;;;;;;4.23;2.33;;;3.70;91.90;;;;;;4980801;28;20220;-82
2021/12/09 02:55:18;;;;;;;4.23;3.13;;;3.70;92.10;;;;;;4999285;28;20168;-81
2021/12/09 02:57:44;;;;;;;4.17;2.17;;;3.60;92.20;;;;;;4998998;28;20525;-81
2021/12/09 03:00:10;;;;;;;4.97;2.47;;;3.50;92.30;;;;;;4998441;28;20187;-79
2021/12/09 03:02:37;;;;;;;8.67;2.60;;;3.50;92.50;;;;;;4980459;28;20199;-80
2021/12/09 03:05:05;;;;;;;5.80;2.83;;;3.50;92.70;;;;;;4997110;28;20553;-79
2021/12/09 03:07:35;;;;;;;12.67;3.77;;;3.50;92.90;;;;;;4998214;28;20512;-81
2021/12/09 03:10:10;;;;;;;6.23;2.50;;;3.40;93.00;;;;;;4980888;28;20460;-80
2021/12/09 03:12:40;;;;;;;8.20;3.20;;;3.40;93.10;;;;;;4980014;28;20436;-80
2021/12/09 03:15:07;;;;;;;4.33;2.53;;;3.40;93.20;;;;;;4980889;28;20492;-80
2021/12/09 03:17:33;;;;;;;8.33;2.87;;;3.40;93.20;;;;;;4998852;28;20816;-80
2021/12/09 03:20:00;;;;;;;11.83;3.30;;;3.30;93.20;;;;;;4980471;28;20412;-80
2021/12/09 03:22:25;;;;;;;6.80;2.97;;;3.30;93.40;;;;;;4996714;28;20956;-81
2021/12/09 03:24:52;;;;;;;8.40;3.07;;;3.20;93.40;;;;;;4997877;28;20410;-81
2021/12/09 03:27:18;;;;;;;7.53;3.07;;;3.20;93.60;;;;;;4998082;28;20172;-81
2021/12/09 03:29:44;;;;;;;6.50;3.00;;;3.20;93.70;;;;;;4997060;28;20793;-80
2021/12/09 03:32:13;;;;;;;3.70;2.37;;;3.20;93.80;;;;;;4995786;28;20431;-80
2021/12/09 03:34:41;;;;;;;11.60;3.40;;;3.10;93.80;;;;;;4980191;28;20411;-80
2021/12/09 03:37:12;;;;;;;8.43;3.20;;;3.10;93.80;;;;;;4979241;28;20893;-80
2021/12/09 03:39:40;;;;;;;6.10;3.67;;;3.10;94.00;;;;;;4978283;28;20404;-79
2021/12/09 03:42:08;;;;;;;6.50;3.10;;;3.10;94.00;;;;;;4996682;28;20989;-81
2021/12/09 03:44:36;;;;;;;13.97;3.60;;;3.10;94.30;;;;;;4981256;28;20840;-81
2021/12/09 03:47:05;;;;;;;4.23;2.10;;;3.00;94.20;;;;;;4996151;28;20921;-80
2021/12/09 03:49:31;;;;;;;17.97;3.33;;;3.00;94.30;;;;;;4997866;28;20486;-79
2021/12/09 03:51:56;;;;;;;6.60;2.90;;;3.00;94.40;;;;;;4983552;28;20984;-81
2021/12/09 03:54:23;;;;;;;7.00;2.80;;;3.00;94.40;;;;;;5003053;28;20203;-80
2021/12/09 03:56:48;;;;;;;4.87;2.43;;;2.90;94.40;;;;;;4999499;28;20167;-80
2021/12/09 03:59:15;;;;;;;12.40;3.57;;;2.90;94.60;;;;;;4977563;28;20481;-80
2021/12/09 04:01:43;;;;;;;8.93;3.10;;;2.90;94.70;;;;;;4996506;28;20542;-79
2021/12/09 04:04:10;;;;;;;5.87;2.97;;;2.90;94.80;;;;;;4996657;28;20477;-79
2021/12/09 04:06:37;;;;;;;3.00;2.00;;;2.90;94.80;;;;;;4997918;28;20777;-80
2021/12/09 04:09:05;;;;;;;5.87;3.10;;;2.80;94.70;;;;;;4981903;28;20411;-80
2021/12/09 04:11:31;;;;;;;6.40;3.20;;;2.80;94.80;;;;;;4998803;28;20473;-82
2021/12/09 04:13:57;;;;;;;8.00;3.17;;;2.80;94.90;;;;;;4981445;28;20482;-81
2021/12/09 04:16:22;;;;;;;7.57;2.63;;;2.80;94.90;;;;;;5000403;28;20450;-79
2021/12/09 04:18:48;;;;;;;16.40;3.50;;;2.80;95.10;;;;;;4996448;28;20172;-81
2021/12/09 04:21:14;;;;;;;8.93;2.67;;;2.80;95.00;;;;;;4979268;28;20262;-81
2021/12/09 04:23:40;;;;;;;6.70;3.20;;;2.80;95.20;;;;;;4997725;28;20160;-79
2021/12/09 04:26:07;;;;;;;6.43;3.10;;;2.70;95.10;;;;;;5005832;28;20171;-79
2021/12/09 04:28:34;;;;;;;5.20;3.47;;;2.70;95.60;;;;;;4989787;28;20415;-81
2021/12/09 04:31:00;;;;;;;6.57;3.77;;;2.70;95.30;;;;;;4984257;28;20455;-80
2021/12/09 04:33:27;;;;;;;5.53;2.77;;;2.70;95.40;;;;;;5003276;28;20415;-80
2021/12/09 04:35:53;;;;;;;14.20;3.60;;;2.70;95.40;;;;;;5012101;28;20410;-83
2021/12/09 04:38:18;;;;;;;6.03;3.00;;;2.70;95.50;;;;;;5013547;28;20414;-82
2021/12/09 04:40:44;;;;;;;7.73;2.90;;;2.70;95.50;;;;;;5014675;28;20190;-82
2021/12/09 04:43:10;;;;;;;6.53;3.03;;;2.60;95.60;;;;;;5014085;28;20180;-80
2021/12/09 04:45:38;;;;;;;5.83;2.77;;;2.60;95.70;;;;;;4987712;28;20184;-81
2021/12/09 04:48:05;;;;;;;13.70;3.80;;;2.60;95.80;;;;;;5004376;28;20183;-80
2021/12/09 04:50:31;;;;;;;11.83;4.40;;;2.60;95.80;;;;;;4997943;28;20450;-81
2021/12/09 04:52:56;;;;;;;8.17;4.03;;;2.60;95.90;;;;;;4995097;28;20907;-81
2021/12/09 04:55:22;;;;;;;6.33;3.27;;;2.60;95.90;;;;;;4978669;28;20192;-80
2021/12/09 04:57:48;;;;;;;5.10;3.63;;;2.60;96.00;;;;;;4996800;28;20212;-81
2021/12/09 05:00:18;;;;;;;9.80;5.00;;;2.60;96.10;;;;;;4977354;28;20669;-80
2021/12/09 05:03:02;;;;;;;7.17;3.33;;;2.60;96.10;;;;;;4995150;28;20443;-79
2021/12/09 05:05:34;;;;;;;6.37;2.73;;;2.60;96.10;;;;;;4977662;28;20434;-79
2021/12/09 05:08:00;;;;;;;4.10;2.70;;;2.50;96.00;;;;;;4995560;28;20415;-79
2021/12/09 05:10:26;;;;;;;9.37;3.00;;;2.50;96.10;;;;;;4995075;28;20458;-80
2021/12/09 05:12:52;;;;;;;7.27;3.13;;;2.50;96.20;;;;;;4979428;28;20410;-79
2021/12/09 05:15:18;;;;;;;8.07;3.10;;;2.50;96.10;;;;;;4994660;28;20469;-79
2021/12/09 05:17:44;;;;;;;8.63;3.13;;;2.50;96.20;;;;;;4993616;28;20299;-79
2021/12/09 05:20:10;;;;;;;6.67;2.80;;;2.50;96.20;;;;;;4993714;28;20180;-79
2021/12/09 05:22:35;;;;;;;7.20;3.60;;;2.50;96.30;;;;;;4994779;28;20194;-81
2021/12/09 05:25:01;;;;;;;7.80;4.00;;;2.50;96.30;;;;;;4994945;28;20415;-81
2021/12/09 05:27:28;;;;;;;5.70;3.03;;;2.50;96.20;;;;;;4977075;28;20605;-80
2021/12/09 05:30:04;;;;;;;8.83;3.10;;;2.50;96.30;;;;;;4994664;28;20239;-82
2021/12/09 05:32:31;;;;;;;7.13;3.27;;;2.50;96.40;;;;;;4977540;28;20530;-80
2021/12/09 05:34:57;;;;;;;8.20;3.10;;;2.50;96.40;;;;;;4992952;28;20489;-79
2021/12/09 05:37:25;;;;;;;6.53;3.90;;;2.50;96.50;;;;;;4994528;28;20952;-80
2021/12/09 05:39:52;;;;;;;8.90;3.50;;;2.40;96.40;;;;;;4994872;28;20415;-81
2021/12/09 05:42:21;;;;;;;7.03;3.20;;;2.40;96.50;;;;;;4995274;28;20513;-81
2021/12/09 05:44:48;;;;;;;9.70;3.40;;;2.50;96.50;;;;;;4975884;28;20501;-80
2021/12/09 05:47:14;;;;;;;10.90;3.73;;;2.50;96.50;;;;;;4995471;28;20426;-80
2021/12/09 05:49:43;;;;;;;6.93;3.07;;;2.50;96.50;;;;;;4994988;28;20430;-81
2021/12/09 05:52:09;;;;;;;7.27;3.50;;;2.50;96.50;;;;;;4995113;28;20470;-80
2021/12/09 05:54:36;;;;;;;4.70;3.00;;;2.50;96.50;;;;;;4977881;28;20530;-81
2021/12/09 05:57:03;;;;;;;9.80;3.57;;;2.50;96.50;;;;;;4994957;28;20439;-80
2021/12/09 05:59:29;;;;;;;4.80;3.07;;;2.50;96.50;;;;;;4978093;28;20407;-80
2021/12/09 06:01:55;;;;;;;6.13;2.80;;;2.50;96.40;;;;;;4996687;28;20844;-79
2021/12/09 06:04:24;;;;;;;5.53;2.40;;;2.50;96.50;;;;;;4981472;28;20430;-81
2021/12/09 06:06:50;;;;;;;6.17;3.03;;;2.40;96.50;;;;;;4976745;28;20481;-79
2021/12/09 06:09:17;;;;;;;14.03;3.53;;;2.40;96.50;;;;;;4981275;28;20438;-80
2021/12/09 06:11:46;;;;;;;9.80;3.27;;;2.40;96.50;;;;;;5003785;28;20501;-81
2021/12/09 06:14:12;;;;;;;13.60;5.03;;;2.40;96.60;;;;;;4987535;28;20683;-80
2021/12/09 06:16:38;;;;;;;13.83;3.70;;;2.40;96.60;;;;;;4994077;28;20419;-80
2021/12/09 06:19:04;;;;;;;5.70;3.70;;;2.40;96.60;;;;;;4976158;28;20422;-82
2021/12/09 06:21:30;;;;;;;9.17;4.80;;;2.40;96.70;;;;;;4976997;28;20208;-81
2021/12/09 06:23:59;;;;;;;8.17;3.80;;;2.40;96.70;;;;;;4993827;28;20419;-80
2021/12/09 06:26:26;;;;;;;14.80;3.90;;;2.40;96.70;;;;;;4993546;28;20175;-82
2021/12/09 06:28:52;;;;;;;8.17;5.57;;;2.40;96.80;;;;;;4997432;28;20438;-80
2021/12/09 06:31:19;;;;;;;12.57;4.70;;;2.40;96.80;;;;;;5008642;28;20457;-79
2021/12/09 06:33:45;;;;;;;10.77;4.20;;;2.40;96.80;;;;;;4986759;28;20453;-80
2021/12/09 06:36:12;;;;;;;12.27;4.70;;;2.40;96.80;;;;;;5007133;28;20437;-79
2021/12/09 06:38:37;;;;;;;9.33;3.77;;;2.40;96.80;;;;;;4997137;28;20429;-78
2021/12/09 06:41:03;;;;;;;10.50;3.70;;;2.40;96.90;;;;;;5014606;28;20450;-79
2021/12/09 06:43:30;;;;;;;8.77;4.50;;;2.40;97.00;;;;;;4989163;28;20278;-79
2021/12/09 06:45:57;;;;;;;6.00;3.73;;;2.40;97.10;;;;;;4990540;28;20434;-80
2021/12/09 06:48:23;;;;;;;11.23;4.77;;;2.40;97.00;;;;;;4970331;28;20553;-80
2021/12/09 06:50:50;;;;;;;8.87;3.77;;;2.40;97.10;;;;;;4969868;28;20472;-79
2021/12/09 06:53:16;;;;;;;9.50;3.90;;;2.40;97.00;;;;;;4992072;28;20484;-79
2021/12/09 06:55:43;;;;;;;13.67;4.37;;;2.40;97.00;;;;;;4992467;28;20512;-80
2021/12/09 06:58:10;;;;;;;6.23;3.53;;;2.40;97.00;;;;;;4996301;28;21161;-79
2021/12/09 07:00:42;;;;;;;7.07;4.27;;;2.40;97.10;;;;;;4996200;28;20438;-79
2021/12/09 07:03:09;;;;;;;7.10;3.90;;;2.40;97.00;;;;;;4995140;28;20429;-80
2021/12/09 07:05:36;;;;;;;11.93;5.23;;;2.40;97.10;;;;;;4981845;28;20752;-81
2021/12/09 07:08:03;;;;;;;6.23;4.37;;;2.40;97.10;;;;;;4983078;28;20429;-81
2021/12/09 07:10:28;;;;;;;10.63;5.03;;;2.40;97.10;;;;;;4981865;28;20461;-80
2021/12/09 07:12:54;;;;;;;12.07;3.77;;;2.40;97.20;;;;;;5004499;28;20441;-80
2021/12/09 07:15:21;;;;;;;7.67;4.07;;;2.40;97.20;;;;;;4978637;28;20202;-81
2021/12/09 07:17:47;;;;;;;12.70;4.57;;;2.40;97.30;;;;;;4976384;28;20171;-80
2021/12/09 07:20:17;;;;;;;10.67;4.00;;;2.40;97.40;;;;;;4977249;28;20522;-81
2021/12/09 07:22:45;;;;;;;8.50;4.73;;;2.40;97.50;;;;;;4997404;28;20635;-79
2021/12/09 07:25:11;;;;;;;6.93;3.37;;;2.40;97.50;;;;;;4980250;28;20617;-80
2021/12/09 07:27:37;;;;;;;9.40;3.80;;;2.40;97.40;;;;;;4996101;28;20418;-80
2021/12/09 07:30:05;;;;;;;6.23;4.30;;;2.40;97.40;;;;;;4976167;28;20191;-81
2021/12/09 07:32:32;;;;;;;8.80;4.77;;;2.40;97.40;;;;;;4977009;28;20203;-80
2021/12/09 07:34:58;;;;;;;5.40;3.53;;;2.40;97.70;;;;;;4976734;28;20950;-80
2021/12/09 07:37:24;;;;;;;6.53;4.87;;;2.40;97.30;;;;;;4975504;28;20468;-79
2021/12/09 07:39:49;;;;;;;5.30;4.00;;;2.40;97.30;;;;;;4994121;28;20727;-79
2021/12/09 07:42:17;;;;;;;11.23;4.00;;;2.40;97.40;;;;;;5036896;22;20773;-77
2021/12/09 07:44:43;;;;;;;7.87;4.00;;;2.50;97.40;;;;;;5029294;28;20182;-75
2021/12/09 07:47:09;;;;;;;11.07;3.83;;;2.50;97.30;;;;;;4996677;28;20503;-75
2021/12/09 07:49:34;;;;;;;13.40;4.73;;;2.50;97.30;;;;;;5015931;28;20197;-74
2021/12/09 07:52:00;;;;;;;9.00;4.03;;;2.50;97.20;;;;;;5013831;28;20506;-73
2021/12/09 07:54:26;;;;;;;9.77;4.20;;;2.50;97.20;;;;;;5015443;28;20166;-75
2021/12/09 07:56:52;;;;;;;6.03;3.90;;;2.50;97.10;;;;;;5015991;28;20177;-75
2021/12/09 07:59:18;;;;;;;9.17;3.73;;;2.50;97.10;;;;;;5038251;28;20178;-76
2021/12/09 08:01:45;;;;;;;8.30;3.23;;;2.50;97.00;;;;;;5035746;28;20499;-75
2021/12/09 08:04:11;;;;;;;6.27;3.57;;;2.60;97.00;;;;;;5031971;28;20432;-74
2021/12/09 08:06:37;;;;;;;7.33;3.20;;;2.70;96.90;;;;;;5030207;28;20541;-73
2021/12/09 08:09:04;;;;;;;13.77;5.07;;;2.70;96.80;;;;;;5012108;28;20340;-73
2021/12/09 08:11:33;;;;;;;13.33;5.63;;;2.80;96.70;;;;;;5032227;28;20495;-74
2021/12/09 08:13:59;;;;;;;12.30;4.80;;;2.80;96.50;;;;;;5028596;28;20420;-74
2021/12/09 08:16:24;;;;;;;13.70;4.10;;;2.90;96.40;;;;;;5033623;28;20423;-74
2021/12/09 08:18:56;;;;;;;8.27;5.10;;;3.00;96.40;;;;;;5027251;28;20422;-77
2021/12/09 08:21:26;;;;;;;13.33;4.13;;;3.10;96.40;;;;;;5020321;28;20304;-73
2021/12/09 08:23:53;;;;;;;11.87;4.20;;;3.20;96.00;;;;;;5030943;28;20498;-75
2021/12/09 08:26:20;;;;;;;17.47;4.83;;;3.30;95.70;;;;;;4997879;28;20856;-73
2021/12/09 08:28:46;;;;;;;24.63;5.20;;;3.40;95.40;;;;;;5039491;28;20515;-75
2021/12/09 08:31:12;;;;;;;7.40;3.33;;;3.50;94.90;;;;;;5020001;28;20592;-73
2021/12/09 08:33:37;;;;;;;8.07;4.20;;;3.50;94.50;;;;;;5038348;28;20415;-72
2021/12/09 08:36:04;;;;;;;13.20;4.70;;;3.40;94.20;;;;;;5036422;28;20180;-73
2021/12/09 08:38:30;;;;;;;7.60;3.50;;;3.40;94.30;;;;;;5035603;28;20196;-74
2021/12/09 08:40:55;;;;;;;8.40;4.17;;;3.30;94.50;;;;;;5029890;28;20472;-74
2021/12/09 08:43:24;;;;;;;15.00;5.23;;;3.30;94.60;;;;;;5031857;28;20537;-75
2021/12/09 08:45:53;;;;;;;8.97;4.70;;;3.30;94.80;;;;;;5033144;28;20610;-74
2021/12/09 08:48:21;;;;;;;8.60;4.10;;;3.40;95.00;;;;;;5038976;28;20443;-74
2021/12/09 08:50:50;;;;;;;10.33;3.93;;;3.40;94.70;;;;;;5037933;28;20568;-75
2021/12/09 08:53:19;;;;;;;11.87;5.60;;;3.50;94.40;;;;;;5039171;28;20800;-74
2021/12/09 08:55:45;;;;;;;19.70;6.83;;;3.60;94.50;;;;;;5032389;28;20996;-73
2021/12/09 08:58:12;;;;;;;9.73;5.77;;;3.70;94.20;;;;;;5032451;28;20419;-74
2021/12/09 09:00:39;;;;;;;12.90;5.40;;;3.70;94.10;;;;;;5034301;28;20263;-74
2021/12/09 09:03:04;;;;;;;12.47;4.50;;;3.70;93.60;;;;;;5020891;28;20790;-75
2021/12/09 09:05:32;;;;;;;14.30;7.40;;;3.70;93.60;;;;;;5036750;28;20412;-75
2021/12/09 09:07:58;;;;;;;43.77;22.87;;;3.80;93.70;;;;;;5031497;28;20177;-75
2021/12/09 09:10:30;;;;;;;14.10;5.53;;;3.80;93.70;;;;;;5015140;28;20877;-73
2021/12/09 09:12:56;;;;;;;8.77;5.20;;;3.90;93.30;;;;;;5034020;28;20651;-73
2021/12/09 09:15:25;;;;;;;15.40;5.67;;;3.90;93.20;;;;;;5012580;28;20972;-74
2021/12/09 09:17:51;;;;;;;9.07;5.10;;;4.10;94.40;;;;;;5029326;28;20823;-74
2021/12/09 09:20:20;;;;;;;11.93;4.47;;;5.20;94.20;;;;;;5029562;28;20435;-75
2021/12/09 09:22:46;;;;;;;10.37;4.00;;;6.50;90.50;;;;;;5010045;28;20494;-75
2021/12/09 09:25:17;;;;;;;12.00;4.23;;;7.80;85.20;;;;;;5007123;28;20433;-73
2021/12/09 09:27:44;;;;;;;16.97;4.47;;;8.70;77.10;;;;;;5027666;28;20810;-74
2021/12/09 09:30:17;;;;;;;13.00;4.40;;;9.40;70.90;;;;;;5024923;28;20456;-74
2021/12/09 09:32:44;;;;;;;8.03;4.90;;;9.90;66.40;;;;;;5009594;28;20459;-75
2021/12/09 09:35:10;;;;;;;6.67;4.23;;;10.40;64.10;;;;;;5028554;28;20438;-75
2021/12/09 09:37:37;;;;;;;9.90;4.23;;;10.60;58.90;;;;;;5010733;28;20845;-74
2021/12/09 09:40:09;;;;;;;5.50;4.37;;;10.40;58.50;;;;;;5009583;28;20424;-74
2021/12/09 09:45:07;;;;;;;8.90;3.93;;;10.90;58.40;;;;;;5014602;28;20420;-75
2021/12/09 09:47:32;;;;;;;7.10;3.87;;;11.50;57.20;;;;;;5031149;28;20416;-76
2021/12/09 09:49:59;;;;;;;9.23;3.70;;;11.90;54.80;;;;;;4991968;28;20508;-75
2021/12/09 09:52:26;;;;;;;5.00;3.60;;;12.30;55.10;;;;;;5032373;28;20504;-75
2021/12/09 09:54:54;;;;;;;13.03;4.83;;;12.90;53.80;;;;;;5032813;28;20411;-74
2021/12/09 09:57:20;;;;;;;8.63;4.57;;;13.60;52.70;;;;;;5029811;28;20451;-77
2021/12/09 09:59:45;;;;;;;15.67;8.07;;;14.00;50.80;;;;;;5027785;28;20428;-74
2021/12/09 10:02:12;;;;;;;7.23;4.00;;;13.90;49.10;;;;;;5012367;28;20689;-75
2021/12/09 10:04:47;;;;;;;10.43;4.37;;;13.60;49.80;;;;;;5027916;28;20178;-75
2021/12/09 10:07:16;;;;;;;7.47;4.60;;;13.20;49.60;;;;;;5026535;28;20416;-76
2021/12/09 10:09:46;;;;;;;5.77;3.63;;;12.80;50.60;;;;;;5011594;28;20436;-74
2021/12/09 10:12:13;;;;;;;6.83;4.43;;;12.20;50.60;;;;;;5004851;28;20452;-75
2021/12/09 10:14:39;;;;;;;7.60;3.97;;;11.30;51.80;;;;;;5028582;28;20783;-75
2021/12/09 10:17:08;;;;;;;8.70;5.30;;;10.40;53.80;;;;;;5006518;28;20742;-75
2021/12/09 10:19:37;;;;;;;7.70;5.20;;;9.80;57.40;;;;;;5007797;28;20424;-74
2021/12/09 10:22:10;;;;;;;8.47;5.10;;;9.30;58.70;;;;;;5024776;28;20984;-75
2021/12/09 10:24:38;;;;;;;7.80;3.87;;;9.00;59.90;;;;;;5025603;28;20832;-75
2021/12/09 10:27:07;;;;;;;9.90;4.70;;;8.70;60.60;;;;;;5008985;28;20400;-75
2021/12/09 10:29:42;;;;;;;5.93;3.73;;;8.30;62.80;;;;;;5006509;28;20987;-75
2021/12/09 10:32:13;;;;;;;6.30;3.90;;;8.00;65.20;;;;;;5026392;28;20439;-74
2021/12/09 10:34:42;;;;;;;11.43;4.80;;;7.60;66.10;;;;;;5034774;28;20458;-77
2021/12/09 10:37:21;;;;;;;12.33;4.50;;;7.30;68.70;;;;;;5032374;28;20872;-73
2021/12/09 10:40:18;;;;;;;12.17;5.20;;;7.00;70.10;;;;;;5028628;28;20949;-73
2021/12/09 10:42:59;;;;;;;10.43;4.83;;;6.80;72.40;;;;;;5015112;28;20592;-72
2021/12/09 10:45:34;;;;;;;9.10;4.50;;;6.70;74.60;;;;;;5028394;28;20416;-73
2021/12/09 10:53:47;;;;;;;13.20;5.37;;;6.60;76.20;;;;;;5028321;28;20467;-74
2021/12/09 10:56:23;;;;;;;20.37;5.50;;;6.60;77.60;;;;;;5011175;28;20416;-72
2021/12/09 10:58:49;;;;;;;9.30;4.10;;;6.80;77.10;;;;;;5033028;28;20431;-73
2021/12/09 11:01:17;;;;;;;9.27;4.20;;;6.80;75.70;;;;;;5010138;28;20436;-72
2021/12/09 11:03:50;;;;;;;6.57;3.50;;;6.90;74.80;;;;;;5008523;28;20436;-73
2021/12/09 11:06:30;;;;;;;8.03;3.50;;;6.90;74.30;;;;;;5011699;28;20914;-72
2021/12/09 11:08:58;;;;;;;6.87;4.00;;;6.80;74.80;;;;;;5028849;28;20605;-71
2021/12/09 11:11:36;;;;;;;5.13;3.47;;;6.70;75.10;;;;;;5007779;28;20577;-73
2021/12/09 11:14:17;;;;;;;9.67;6.13;;;6.70;75.90;;;;;;5026441;28;20521;-72
2021/12/09 11:17:02;;;;;;;10.67;3.90;;;6.60;76.10;;;;;;5010142;28;20436;-72
2021/12/09 11:19:39;;;;;;;11.07;4.50;;;6.60;76.50;;;;;;5028576;28;20416;-75
2021/12/09 11:22:19;;;;;;;13.07;4.80;;;6.50;76.60;;;;;;4996241;28;20949;-74
2021/12/09 11:24:55;;;;;;;11.17;3.97;;;6.50;77.10;;;;;;5029668;28;20916;-74
2021/12/09 11:27:23;;;;;;;8.63;3.83;;;6.50;77.40;;;;;;5011306;28;20481;-74
2021/12/09 11:29:52;;;;;;;5.57;3.20;;;6.60;77.60;;;;;;5010473;28;20877;-74
2021/12/09 11:35:02;;;;;;;18.80;6.00;;;6.50;77.00;;;;;;5014736;28;21051;-72
2021/12/09 11:37:38;;;;;;;8.50;4.40;;;6.50;77.40;;;;;;5007790;28;20524;-75
2021/12/09 11:40:11;;;;;;;10.67;3.17;;;6.50;77.40;;;;;;5022841;28;20416;-73
2021/12/09 11:45:16;;;;;;;9.57;3.60;;;6.60;76.80;;;;;;5010947;28;20416;-74
2021/12/09 11:47:44;;;;;;;12.97;3.90;;;6.50;76.00;;;;;;5009432;28;20713;-73
2021/12/09 11:50:14;;;;;;;13.83;6.73;;;6.40;76.70;;;;;;5028729;28;20532;-73
2021/12/09 11:52:44;;;;;;;9.70;4.00;;;6.40;77.60;;;;;;5009388;28;20604;-73
2021/12/09 11:55:14;;;;;;;7.17;3.70;;;6.50;77.60;;;;;;5026219;28;20526;-73
2021/12/09 11:57:45;;;;;;;9.40;2.77;;;6.40;76.90;;;;;;5011060;28;20420;-73
2021/12/09 12:20:54;;;;;;;13.07;5.73;;;6.40;77.80;;;;;;5026470;28;21286;-73
2021/12/09 12:30:03;;;;;;;11.57;3.47;;;6.50;76.80;;;;;;5006152;28;20413;-73
2021/12/09 12:35:42;;;;;;;6.60;3.07;;;6.60;76.70;;;;;;5026555;28;20408;-72
2021/12/09 12:38:35;;;;;;;12.30;4.37;;;6.60;76.40;;;;;;5006377;28;20429;-70
2021/12/09 12:41:08;;;;;;;12.23;3.80;;;6.60;75.90;;;;;;5006095;28;20841;-73
2021/12/09 12:43:54;;;;;;;7.43;3.20;;;6.60;75.80;;;;;;5001032;28;20444;-72
2021/12/09 12:52:09;;;;;;;6.73;2.60;;;6.50;76.20;;;;;;5025552;28;20701;-74
2021/12/09 12:57:36;;;;;;;12.00;2.70;;;6.50;76.50;;;;;;5026265;28;20947;-72
2021/12/09 13:00:05;;;;;;;8.07;2.50;;;6.40;76.10;;;;;;5030386;28;20630;-73
2021/12/09 13:11:01;;;;;;;3.83;2.33;;;6.30;76.70;;;;;;5006509;28;21421;-71
2021/12/09 13:16:34;;;;;;;7.67;2.70;;;6.30;77.00;;;;;;5025070;28;20416;-75
2021/12/09 13:19:37;;;;;;;7.17;2.40;;;6.30;76.60;;;;;;5007798;28;20459;-73
2021/12/09 13:22:08;;;;;;;11.43;3.10;;;6.30;77.10;;;;;;5006478;28;20447;-72
2021/12/09 13:27:22;;;;;;;5.77;2.40;;;6.30;77.70;;;;;;5025746;28;20849;-72
2021/12/09 13:36:29;;;;;;;4.80;2.00;;;6.30;77.90;;;;;;4960192;28;20521;-72
2021/12/09 13:54:08;;;;;;;7.17;2.20;;;6.30;78.40;;;;;;4984406;28;20202;-76
2021/12/09 13:55:22;;;;;;;3.97;2.33;;;6.30;78.30;;;;;;4984024;28;20962;-77
2021/12/09 13:58:10;;;;;;;6.83;2.53;;;6.30;78.50;;;;;;4984865;28;20416;-77
2021/12/09 14:00:35;;;;;;;5.20;2.67;;;6.30;78.20;;;;;;4967129;28;20894;-76
2021/12/09 14:03:06;;;;;;;19.57;10.73;;;6.30;78.40;;;;;;4949526;28;20508;-76
2021/12/09 14:05:55;;;;;;;16.27;4.63;;;6.30;79.30;;;;;;4952850;28;20179;-76
2021/12/09 14:08:38;;;;;;;8.50;3.00;;;6.20;78.20;;;;;;4957675;28;20496;-76
2021/12/09 14:11:42;;;;;;;7.50;2.50;;;6.20;78.50;;;;;;4975362;28;20580;-75
2021/12/09 14:14:28;;;;;;;4.23;2.20;;;6.30;79.60;;;;;;4954482;28;20452;-77
2021/12/09 14:17:24;;;;;;;4.47;2.60;;;6.40;79.30;;;;;;4953647;28;20877;-77
2021/12/09 14:20:33;;;;;;;3.90;2.20;;;6.40;78.70;;;;;;4975271;28;20515;-79
2021/12/09 14:27:44;;;;;;;14.70;6.57;;;6.40;79.00;;;;;;4929608;28;20467;-76
2021/12/09 14:30:57;;;;;;;6.53;2.10;;;6.30;79.40;;;;;;4950820;28;20461;-77
2021/12/09 14:34:14;;;;;;;3.70;1.80;;;6.30;79.60;;;;;;4955049;28;20431;-76